»·PEaware :: PRD269 KDEN-KSLC

PRD269 :: KDEN-KSLC

FLIGHT INFORMATION

Flight Status: Arrived
Operator: Unknown
More flights by this operator :: More flights under this callsign
Pilot: Anonymous 17514 (17514)
Aircraft: GULFSTREAM G-1159C GULFSTREAM 4
(GLF4)
More flights by this aircraft type
Origin: KDEN Denver Intl
United States
Destination: KSLC Salt Lake City Intl
United States
More flights between these airports :: More routes between these airports
Route: +FOOOT3 RLG EKR LEEHY5
File this flight plan on PilotEdge
Remarks:
Altitude:
(Current/Filed)
40,000ft
Speed:
(Current/Filed)
0kts
Departed: 06-May-18 06:29 PM
Arrived: 06-May-18 07:39 PM
Distance/Time
Traveled:
338nm/1:10
Distance/Time
To Go:
Arrived

Flight Plot

Page will automatically refresh every two minutes.

Flight plan parsing failed; only flown route is shown


Map Options




Map Legend


Flown Route
Filed Route
Departure Airport
Arrival Airport
Navaid (VOR, NDB)
Fix

Horizontal Profiles

Position Reports

Time Latitude Longitude Heading Altitude Ground
Speed
06-May-18 18:10 39.859365 -104.666645 180 5442ft 0kts
06-May-18 18:11 39.859365 -104.666645 180 5442ft 0kts
06-May-18 18:12 39.859365 -104.666645 180 5442ft 0kts
06-May-18 18:13 39.859365 -104.666645 180 5442ft 0kts
06-May-18 18:14 39.859365 -104.666645 180 5442ft 0kts
06-May-18 18:15 39.859365 -104.666645 180 5442ft 0kts
06-May-18 18:16 39.859365 -104.666645 180 5442ft 0kts
06-May-18 18:17 39.859365 -104.666645 180 5442ft 0kts
06-May-18 18:18 39.859365 -104.666645 180 5442ft 0kts
06-May-18 18:19 39.859365 -104.666645 180 5442ft 0kts
06-May-18 18:20 39.859361 -104.666645 180 5442ft 0kts
06-May-18 18:21 39.859811 -104.666736 143 5442ft 2kts
06-May-18 18:22 39.859982 -104.667183 89 5442ft 0kts
06-May-18 18:23 39.859982 -104.667183 89 5442ft 0kts
06-May-18 18:24 39.859982 -104.667166 89 5442ft 0kts
06-May-18 18:25 39.860126 -104.666557 76 5442ft 13kts
06-May-18 18:26 39.861028 -104.661625 86 5442ft 0kts
06-May-18 18:27 39.861028 -104.661625 86 5442ft 0kts
06-May-18 18:28 39.860455 -104.659977 181 5442ft 0kts
06-May-18 18:29 39.830418 -104.663215 210 6520ft 223kts
06-May-18 18:30 39.841377 -104.736651 299 9934ft 267kts
06-May-18 18:31 39.882028 -104.831806 295 11208ft 359kts
06-May-18 18:32 39.920044 -104.925125 293 17894ft 310kts
06-May-18 18:33 39.949432 -105.024528 278 22170ft 303kts
06-May-18 18:34 39.962630 -105.130436 277 23352ft 305kts
06-May-18 18:35 39.974597 -105.233047 277 23370ft 308kts
06-May-18 18:36 39.983533 -105.356751 268 22303ft 357kts
06-May-18 18:36 39.981169 -105.457125 268 25266ft 313kts
06-May-18 18:38 39.977068 -105.594196 269 30299ft 336kts
06-May-18 18:39 39.973909 -105.714801 269 35170ft 363kts
06-May-18 18:40 39.971489 -105.849618 273 39068ft 397kts
06-May-18 18:41 39.978469 -105.989809 274 40376ft 374kts
06-May-18 18:42 39.986332 -106.133914 274 40390ft 424kts
06-May-18 18:43 39.994296 -106.282808 274 40387ft 420kts
06-May-18 18:44 40.002056 -106.431267 274 40360ft 420kts
06-May-18 18:45 40.009909 -106.579357 274 40314ft 420kts
06-May-18 18:46 40.017583 -106.727029 274 40320ft 421kts
06-May-18 18:47 40.025142 -106.875336 273 40315ft 420kts
06-May-18 18:48 40.032521 -107.024819 272 40312ft 421kts
06-May-18 18:48 40.038494 -107.149567 272 40304ft 421kts
06-May-18 18:49 40.045507 -107.298731 272 40289ft 421kts
06-May-18 18:50 40.052262 -107.446541 272 40272ft 421kts
06-May-18 18:51 40.058349 -107.583441 272 40262ft 421kts
06-May-18 18:52 40.064806 -107.732525 272 40278ft 420kts
06-May-18 18:53 40.071031 -107.880861 272 40275ft 420kts
06-May-18 18:54 40.077059 -108.029397 271 40273ft 421kts
06-May-18 18:55 40.082953 -108.178782 272 40273ft 421kts
06-May-18 18:56 40.088626 -108.327784 272 40272ft 421kts
06-May-18 18:57 40.094112 -108.476824 272 40270ft 421kts
06-May-18 18:58 40.099431 -108.626235 272 40235ft 421kts
06-May-18 18:59 40.104362 -108.769937 271 40191ft 421kts
06-May-18 19:00 40.109527 -108.919432 271 40167ft 421kts
06-May-18 19:01 40.115104 -109.069028 271 40154ft 423kts
06-May-18 19:02 40.120546 -109.220146 270 40153ft 426kts
06-May-18 19:03 40.125808 -109.371807 271 40153ft 426kts
06-May-18 19:04 40.130871 -109.523571 270 40149ft 426kts
06-May-18 19:05 40.135552 -109.668329 269 40141ft 375kts
06-May-18 19:06 40.139563 -109.798165 270 38271ft 362kts
06-May-18 19:07 40.143430 -109.927861 270 36399ft 369kts
06-May-18 19:08 40.147183 -110.058653 270 34639ft 371kts
06-May-18 19:09 40.148568 -110.191482 268 33001ft 377kts
06-May-18 19:11 40.147538 -110.325710 267 31865ft 384kts
06-May-18 19:12 40.146267 -110.462225 267 30695ft 389kts
06-May-18 19:13 40.144816 -110.601387 267 29407ft 395kts
06-May-18 19:14 40.143186 -110.740931 267 28181ft 391kts
06-May-18 19:15 40.141514 -110.871179 266 26965ft 360kts
06-May-18 19:16 40.139728 -111.000817 266 25643ft 361kts
06-May-18 19:17 40.137821 -111.128403 265 24181ft 353kts
06-May-18 19:18 40.135792 -111.252231 265 22675ft 348kts
06-May-18 19:19 40.133741 -111.370943 265 21214ft 344kts
06-May-18 19:20 40.131528 -111.491759 265 19751ft 339kts
06-May-18 19:21 40.153331 -111.607537 285 19104ft 346kts
06-May-18 19:22 40.182642 -111.721587 293 19109ft 352kts
06-May-18 19:23 40.228716 -111.831306 294 17764ft 356kts
06-May-18 19:24 40.278282 -111.935084 316 16909ft 355kts
06-May-18 19:25 40.359141 -112.003762 325 15884ft 356kts
06-May-18 19:26 40.448283 -112.051423 348 14445ft 361kts
06-May-18 19:27 40.543830 -112.066141 351 12659ft 349kts
06-May-18 19:28 40.636462 -112.078440 353 11134ft 337kts
06-May-18 19:29 40.728605 -112.089228 353 11005ft 342kts
06-May-18 19:30 40.821323 -112.100181 353 11006ft 342kts
06-May-18 19:31 40.913795 -112.111163 353 11019ft 341kts
06-May-18 19:32 41.000901 -112.121485 355 10965ft 340kts
06-May-18 19:33 41.046481 -112.044928 106 9767ft 288kts
06-May-18 19:34 41.003188 -111.973370 151 8250ft 277kts
06-May-18 19:35 40.931959 -111.948368 203 7083ft 305kts
06-May-18 19:36 40.870168 -111.961052 185 6556ft 174kts
06-May-18 19:37 40.832009 -111.961780 181 5033ft 121kts
06-May-18 19:38 40.796136 -111.961964 179 4235ft 123kts
06-May-18 19:39 40.782420 -111.960940 91 4226ft 3kts
06-May-18 19:40 40.782250 -111.960155 148 4226ft 17kts
06-May-18 19:41 40.778822 -111.957782 105 4227ft 4kts

Navigation Log

Ident Type
Flight plan parsing failed, navigation log unavailable